Time;durP1;ratioP1;P1;durP2;ratioP2;P2;SDS_P1;SDS_P2;PMS_P1;PMS_P2;Temp;Humidity;BMP_temperature;BMP_pressure;BME280_temperature;BME280_humidity;BME280_pressure;Samples;Min_cycle;Max_cycle;Signal;HPM_P1;HPM_P2
2023/05/10 00:01:55;;;;;;;4.30;3.20;;;;;;;6.58;52.96;99899.41;436269;1256;138230;-63
2023/05/10 00:12:01;;;;;;;4.70;3.60;;;;;;;6.49;52.91;99890.62;436233;1250;138827;-65
2023/05/10 00:22:07;;;;;;;6.50;4.50;;;;;;;6.40;53.13;99889.58;436210;1256;138800;-64
2023/05/10 00:32:13;;;;;;;5.40;4.10;;;;;;;6.26;53.50;99874.69;436234;1256;138478;-64
2023/05/10 00:42:19;;;;;;;5.70;3.70;;;;;;;6.17;53.72;99866.88;436127;1254;140448;-66
2023/05/10 00:52:26;;;;;;;4.80;3.10;;;;;;;6.09;53.88;99863.20;436151;1256;139876;-65
2023/05/10 01:02:31;;;;;;;5.20;3.60;;;;;;;6.00;54.18;99856.05;436269;1250;138090;-65
2023/05/10 01:12:40;;;;;;;4.30;3.20;;;;;;;5.91;54.06;99851.72;436376;1252;140472;-65
2023/05/10 01:23:05;;;;;;;5.30;2.90;;;;;;;5.81;54.25;99852.45;436233;1254;139564;-65
2023/05/10 01:33:17;;;;;;;5.40;3.30;;;;;;;5.74;54.10;99846.50;436842;1254;139303;-65
2023/05/10 01:43:27;;;;;;;6.20;3.30;;;;;;;5.66;54.31;99850.63;436681;1256;138753;-66
2023/05/10 01:53:34;;;;;;;4.70;3.10;;;;;;;5.59;54.67;99845.70;437105;1256;138604;-65
2023/05/10 02:03:42;;;;;;;5.10;3.70;;;;;;;5.58;54.56;99837.06;436776;1251;140077;-64
2023/05/10 02:13:50;;;;;;;5.90;3.30;;;;;;;5.49;54.79;99834.80;437210;1254;138164;-65
2023/05/10 02:23:57;;;;;;;5.20;3.70;;;;;;;5.44;54.62;99837.06;436303;1251;138692;-64
2023/05/10 02:34:05;;;;;;;6.00;3.70;;;;;;;5.37;54.86;99825.89;436224;1254;138877;-64
2023/05/10 02:44:11;;;;;;;4.80;3.30;;;;;;;5.33;54.80;99823.23;436227;1254;138261;-65
2023/05/10 02:54:21;;;;;;;6.20;3.10;;;;;;;5.32;54.92;99814.27;436294;1251;138968;-65
2023/05/10 03:04:27;;;;;;;6.50;3.20;;;;;;;5.29;54.96;99822.00;435959;1253;140230;-65
2023/05/10 03:14:46;;;;;;;5.30;3.60;;;;;;;5.29;54.95;99823.22;436100;1254;140695;-64
2023/05/10 03:24:54;;;;;;;4.40;3.20;;;;;;;5.35;54.77;99821.45;436469;1254;139069;-65
2023/05/10 03:35:00;;;;;;;4.90;2.90;;;;;;;5.46;55.04;99820.85;437447;1251;139471;-64
2023/05/10 03:45:07;;;;;;;5.70;2.90;;;;;;;5.62;54.84;99817.97;436459;1251;138665;-64
2023/05/10 03:55:12;;;;;;;;;;;;;;;5.77;54.73;99809.71;437502;1252;138101;-63
2023/05/10 04:05:17;;;;;;;3.80;2.90;;;;;;;5.98;54.34;99809.75;436241;1253;125446;-64
2023/05/10 04:15:23;;;;;;;3.70;3.20;;;;;;;6.83;53.62;99811.61;436624;1254;140080;-64
2023/05/10 04:25:30;;;;;;;4.20;2.60;;;;;;;13.01;47.52;99801.44;436624;1254;139652;-65
2023/05/10 04:35:35;;;;;;;4.00;3.00;;;;;;;14.32;41.15;99806.37;436767;1251;138996;-63
2023/05/10 04:45:41;;;;;;;5.50;2.70;;;;;;;10.53;43.37;99811.71;436302;1254;139630;-64
2023/05/10 04:55:47;;;;;;;5.10;2.60;;;;;;;12.49;43.60;99813.30;436741;1250;138480;-64
2023/05/10 05:05:53;;;;;;;3.70;2.80;;;;;;;20.06;36.12;99801.41;437493;1251;138795;-63
2023/05/10 05:16:01;;;;;;;3.20;2.50;;;;;;;23.67;30.69;99781.11;436122;1251;139459;-63
2023/05/10 05:26:07;;;;;;;4.80;3.00;;;;;;;25.87;27.89;99777.98;437022;1251;139214;-64
2023/05/10 05:36:12;;;;;;;3.30;2.90;;;;;;;27.36;24.84;99784.73;436129;1251;139981;-64
2023/05/10 05:46:18;;;;;;;4.00;2.80;;;;;;;27.65;23.33;99783.02;436235;1251;138510;-63
2023/05/10 05:56:24;;;;;;;7.40;2.30;;;;;;;29.82;22.79;99778.31;435936;1251;138438;-64
2023/05/10 06:06:32;;;;;;;3.80;2.70;;;;;;;32.22;21.32;99764.73;436080;1254;138907;-64
2023/05/10 06:16:37;;;;;;;3.30;2.90;;;;;;;34.28;20.16;99761.39;436472;1254;140538;-63
2023/05/10 06:26:43;;;;;;;3.60;2.60;;;;;;;34.72;18.32;99766.52;436197;1251;138928;-63
2023/05/10 06:36:49;;;;;;;2.50;2.30;;;;;;;34.22;18.30;99762.05;436345;1250;139973;-63
2023/05/10 06:46:55;;;;;;;4.50;2.30;;;;;;;35.52;17.36;99761.05;436067;1251;138892;-63
2023/05/10 06:57:03;;;;;;;4.40;2.40;;;;;;;36.04;17.35;99763.42;439991;1250;139568;-64
2023/05/10 07:07:17;;;;;;;2.60;2.40;;;;;;;37.25;16.59;99762.84;436350;1254;139176;-65
2023/05/10 07:17:23;;;;;;;3.10;2.40;;;;;;;37.93;16.24;99760.88;436110;1254;164508;-63
2023/05/10 07:27:29;;;;;;;2.20;2.00;;;;;;;39.45;15.16;99765.53;436565;1251;139047;-63
2023/05/10 07:37:35;;;;;;;2.10;2.00;;;;;;;40.95;14.91;99756.23;436519;1250;139418;-65
2023/05/10 07:47:41;;;;;;;3.30;2.20;;;;;;;40.73;14.13;99755.13;436727;1254;139332;-64
2023/05/10 07:57:47;;;;;;;3.20;2.30;;;;;;;38.93;14.69;99747.60;436766;1250;139870;-64
2023/05/10 08:07:53;;;;;;;2.40;2.00;;;;;;;39.20;14.46;99741.88;438476;1250;139111;-64
2023/05/10 08:17:59;;;;;;;4.50;2.50;;;;;;;30.02;17.61;99740.54;436437;1250;138654;-68
2023/05/10 08:28:05;;;;;;;3.90;2.30;;;;;;;23.83;22.15;99746.54;436313;1251;139601;-65
2023/05/10 08:38:12;;;;;;;3.60;2.00;;;;;;;20.79;25.09;99752.72;436247;1250;138471;-65
2023/05/10 08:48:19;;;;;;;2.10;1.90;;;;;;;19.15;27.25;99745.48;436645;1250;139147;-65
2023/05/10 08:58:26;;;;;;;3.70;1.90;;;;;;;18.23;28.95;99755.33;436835;1254;139544;-67
2023/05/10 09:08:32;;;;;;;2.70;2.40;;;;;;;17.97;29.48;99741.79;436413;1250;138326;-67
2023/05/10 09:18:38;;;;;;;2.90;2.00;;;;;;;17.81;29.77;99741.88;436394;1254;140056;-65
2023/05/10 09:28:55;;;;;;;3.70;1.90;;;;;;;17.76;30.06;99734.66;436641;1251;139043;-65
2023/05/10 09:39:01;;;;;;;3.10;1.90;;;;;;;17.49;30.32;99741.88;436651;1250;138842;-66
2023/05/10 09:49:08;;;;;;;2.40;1.50;;;;;;;17.44;30.60;99740.92;436361;1251;139801;-66
2023/05/10 09:59:14;;;;;;;3.50;2.30;;;;;;;17.36;30.63;99736.45;436399;1251;139369;-65
2023/05/10 10:09:20;;;;;;;3.00;2.60;;;;;;;17.14;30.85;99725.05;436486;1254;139540;-65
2023/05/10 10:19:26;;;;;;;1.70;1.60;;;;;;;16.90;31.02;99724.98;436376;1251;139973;-67
2023/05/10 10:29:40;;;;;;;2.10;1.80;;;;;;;16.82;30.85;99712.06;436544;1251;139241;-65
2023/05/10 10:39:49;;;;;;;2.30;1.60;;;;;;;16.53;30.90;99711.45;436745;1251;139985;-65
2023/05/10 10:50:05;;;;;;;3.40;1.80;;;;;;;16.35;31.32;99698.80;437067;1253;138694;-66
2023/05/10 11:00:32;;;;;;;3.20;2.00;;;;;;;16.53;31.56;99697.46;436989;1251;139424;-65
2023/05/10 11:10:38;;;;;;;2.60;1.70;;;;;;;16.48;31.54;99703.16;436344;1254;139535;-66
2023/05/10 11:20:46;;;;;;;3.40;1.90;;;;;;;16.59;31.89;99691.59;436495;1250;139377;-67
2023/05/10 11:30:53;;;;;;;6.90;2.40;;;;;;;16.66;31.77;99682.55;437060;1252;138493;-66
2023/05/10 11:40:59;;;;;;;2.90;1.70;;;;;;;16.65;31.90;99672.17;437228;1251;139504;-67
2023/05/10 11:51:05;;;;;;;4.30;2.00;;;;;;;16.61;31.84;99677.13;436629;1254;140065;-65
2023/05/10 12:01:11;;;;;;;5.80;1.80;;;;;;;16.46;31.89;99664.33;436553;1251;138935;-66
2023/05/10 12:11:17;;;;;;;3.50;1.90;;;;;;;16.59;32.22;99655.22;436535;1251;138881;-66
2023/05/10 12:21:23;;;;;;;5.00;1.90;;;;;;;16.80;32.14;99663.66;437219;1250;139010;-67
2023/05/10 12:31:29;;;;;;;3.50;1.90;;;;;;;16.76;31.78;99660.94;436356;1251;138389;-65
2023/05/10 12:41:35;;;;;;;5.00;2.70;;;;;;;16.82;31.78;99657.10;436155;1254;139188;-65
2023/05/10 12:51:41;;;;;;;2.50;1.50;;;;;;;17.02;31.46;99656.59;436201;1250;139556;-64
2023/05/10 13:01:47;;;;;;;3.50;1.60;;;;;;;17.03;31.29;99646.95;436262;1251;139493;-65
2023/05/10 13:11:54;;;;;;;3.80;2.00;;;;;;;17.02;31.13;99638.02;436342;1251;139113;-66
2023/05/10 13:21:59;;;;;;;2.90;1.60;;;;;;;17.04;31.36;99635.88;437213;1251;139941;-65
2023/05/10 13:32:06;;;;;;;3.40;1.90;;;;;;;17.20;31.59;99626.83;437101;1254;139571;-64
2023/05/10 13:42:12;;;;;;;3.00;1.80;;;;;;;17.16;31.31;99626.13;436309;1254;138804;-65
2023/05/10 13:52:18;;;;;;;2.50;1.80;;;;;;;16.90;31.20;99614.33;435503;1251;139447;-65
2023/05/10 14:02:27;;;;;;;4.20;1.70;;;;;;;16.95;31.65;99604.80;436391;1251;140273;-65
2023/05/10 14:12:33;;;;;;;2.70;1.90;;;;;;;16.94;31.29;99601.05;436142;1254;140418;-66
2023/05/10 14:22:40;;;;;;;5.40;2.40;;;;;;;16.99;31.57;99591.25;436528;1254;140084;-67
2023/05/10 14:32:45;;;;;;;3.00;1.90;;;;;;;17.04;31.45;99582.48;436160;1251;139069;-65
2023/05/10 14:42:53;;;;;;;5.00;2.00;;;;;;;17.13;31.49;99586.46;435860;1254;139018;-66
2023/05/10 14:53:35;;;;;;;2.30;1.60;;;;;;;17.03;31.53;99592.50;435880;1256;138605;-66
2023/05/10 15:03:41;;;;;;;3.20;1.50;;;;;;;17.02;31.59;99587.77;436211;1254;140797;-64
2023/05/10 15:13:49;;;;;;;4.50;1.80;;;;;;;17.03;31.27;99581.71;436894;1254;139697;-67
2023/05/10 15:23:55;;;;;;;2.20;1.40;;;;;;;17.03;31.32;99581.11;436967;1251;139376;-66
2023/05/10 15:34:01;;;;;;;4.20;1.40;;;;;;;16.99;31.29;99576.55;437442;1255;138943;-65
2023/05/10 15:44:07;;;;;;;2.30;1.50;;;;;;;16.94;31.20;99579.98;437143;1251;139488;-66
2023/05/10 15:54:13;;;;;;;3.90;1.60;;;;;;;16.83;30.80;99584.02;437072;1250;139689;-66
2023/05/10 16:04:19;;;;;;;4.80;1.60;;;;;;;16.74;30.96;99581.30;437114;1255;138433;-66
2023/05/10 16:14:25;;;;;;;3.50;1.60;;;;;;;16.65;30.95;99589.69;437115;1251;138879;-65
2023/05/10 16:24:31;;;;;;;2.60;2.10;;;;;;;16.55;31.00;99588.72;436869;1252;140825;-66
2023/05/10 16:34:38;;;;;;;2.20;1.70;;;;;;;16.44;30.85;99596.48;436202;1254;141304;-64
2023/05/10 16:44:44;;;;;;;3.20;1.70;;;;;;;16.32;30.85;99598.06;438701;1255;140575;-65
2023/05/10 16:54:50;;;;;;;2.90;1.90;;;;;;;16.42;31.00;99598.52;436194;1254;139204;-65
2023/05/10 17:04:56;;;;;;;2.60;1.80;;;;;;;17.35;29.98;99604.08;436381;1254;140052;-66
2023/05/10 17:15:01;;;;;;;6.80;2.10;;;;;;;16.44;30.44;99616.77;436572;1250;138593;-67
2023/05/10 17:25:10;;;;;;;1.80;1.50;;;;;;;16.25;30.58;99616.13;436981;1251;138309;-65
2023/05/10 17:35:16;;;;;;;4.80;1.60;;;;;;;15.91;31.14;99624.14;437350;1253;138839;-66
2023/05/10 17:45:22;;;;;;;2.60;2.00;;;;;;;15.42;31.94;99635.45;437071;1250;139118;-65
2023/05/10 17:55:29;;;;;;;3.70;2.10;;;;;;;14.99;32.72;99645.48;436859;1254;138733;-65
2023/05/10 18:05:38;;;;;;;4.00;1.80;;;;;;;14.64;33.38;99660.27;437056;1254;140671;-66
2023/05/10 18:15:44;;;;;;;5.70;2.90;;;;;;;14.27;33.84;99671.27;437094;1255;138683;-64
2023/05/10 18:25:50;;;;;;;4.80;2.30;;;;;;;13.92;34.22;99674.14;437194;1252;140123;-66
2023/05/10 18:35:56;;;;;;;7.70;3.40;;;;;;;13.61;34.52;99689.80;437121;1251;139424;-66
2023/05/10 18:46:02;;;;;;;7.40;2.60;;;;;;;13.25;34.84;99699.48;437160;1256;138524;-66
2023/05/10 18:56:08;;;;;;;3.50;2.50;;;;;;;12.96;35.21;99711.04;436609;1251;139359;-65
2023/05/10 19:06:14;;;;;;;3.90;2.50;;;;;;;12.67;35.42;99713.92;436346;1253;138995;-66
2023/05/10 19:16:20;;;;;;;4.60;2.30;;;;;;;12.54;35.55;99721.20;435979;1254;193173;-66
2023/05/10 19:26:28;;;;;;;5.50;3.70;;;;;;;12.39;35.81;99729.03;436275;1254;138451;-65
2023/05/10 19:36:34;;;;;;;7.10;3.50;;;;;;;12.20;36.21;99733.33;439695;1255;139451;-65
2023/05/10 19:46:40;;;;;;;7.60;3.80;;;;;;;11.97;36.82;99737.52;436282;1251;139185;-63
2023/05/10 19:56:46;;;;;;;5.10;4.00;;;;;;;11.69;37.38;99738.44;438162;1255;138889;-64
2023/05/10 20:06:52;;;;;;;7.90;4.30;;;;;;;11.38;37.75;99746.78;436488;1251;140108;-66
2023/05/10 20:16:58;;;;;;;10.30;4.40;;;;;;;11.15;38.18;99755.08;436565;1256;139536;-64
2023/05/10 20:27:04;;;;;;;7.10;4.10;;;;;;;10.87;38.94;99759.06;436523;1254;139277;-64
2023/05/10 20:37:10;;;;;;;5.00;3.20;;;;;;;10.67;39.55;99760.83;436515;1256;138443;-67
2023/05/10 20:47:17;;;;;;;6.40;3.00;;;;;;;10.43;40.38;99758.77;436071;1251;139644;-65
2023/05/10 20:57:22;;;;;;;5.40;2.80;;;;;;;10.22;41.19;99765.44;436446;1251;140529;-64
2023/05/10 21:07:31;;;;;;;6.50;3.30;;;;;;;10.03;41.83;99770.37;436489;1256;138455;-64
2023/05/10 21:17:36;;;;;;;6.70;4.00;;;;;;;9.89;42.35;99770.31;437423;1251;139980;-64
2023/05/10 21:27:42;;;;;;;6.30;3.60;;;;;;;9.82;42.44;99772.86;437196;1255;138775;-65
2023/05/10 21:37:48;;;;;;;5.80;3.30;;;;;;;9.71;42.64;99774.52;437223;1251;138054;-63
2023/05/10 21:47:54;;;;;;;3.80;2.90;;;;;;;9.60;42.79;99777.44;436931;1251;138522;-64
2023/05/10 21:58:00;;;;;;;3.80;2.60;;;;;;;9.55;43.06;99788.85;436602;1254;139665;-65
2023/05/10 22:08:06;;;;;;;5.10;3.60;;;;;;;9.55;43.13;99789.41;436496;1254;138094;-63
2023/05/10 22:18:12;;;;;;;4.30;2.90;;;;;;;9.44;43.26;99795.09;436336;1254;139148;-64
2023/05/10 22:28:18;;;;;;;3.50;3.00;;;;;;;9.30;43.63;99802.30;436568;1254;139070;-64
2023/05/10 22:38:24;;;;;;;3.00;2.70;;;;;;;9.20;43.90;99812.45;436767;1251;139271;-63
2023/05/10 22:48:31;;;;;;;3.60;2.70;;;;;;;9.03;44.19;99811.98;436379;1252;138649;-65
2023/05/10 22:58:37;;;;;;;3.90;3.10;;;;;;;8.90;44.53;99818.98;436515;1251;139337;-64
2023/05/10 23:08:43;;;;;;;4.30;3.00;;;;;;;8.78;44.83;99819.79;436699;1251;138191;-64
2023/05/10 23:18:49;;;;;;;6.20;3.50;;;;;;;8.67;45.14;99819.96;436372;1254;138734;-64
2023/05/10 23:28:55;;;;;;;3.00;2.50;;;;;;;8.58;45.40;99820.13;436236;1254;138359;-64
2023/05/10 23:39:00;;;;;;;5.50;2.60;;;;;;;8.45;45.49;99818.44;436437;1251;140545;-65
2023/05/10 23:49:06;;;;;;;4.60;3.20;;;;;;;8.30;46.09;99812.09;436263;1251;138529;-65
2023/05/10 23:59:12;;;;;;;5.10;2.60;;;;;;;8.13;46.30;99812.77;436389;1251;138738;-64
